sensor_id;sensor_type;location;lat;lon;timestamp;P1;durP1;ratioP1;P2;durP2;ratioP2
3311;SDS011;1668;49.648;8.570;2023-05-09T00:00:47;10.60;;;9.53;;
3311;SDS011;1668;49.648;8.570;2023-05-09T00:03:14;9.93;;;8.93;;
3311;SDS011;1668;49.648;8.570;2023-05-09T00:05:42;10.80;;;9.70;;
3311;SDS011;1668;49.648;8.570;2023-05-09T00:08:10;12.07;;;9.83;;
3311;SDS011;1668;49.648;8.570;2023-05-09T00:10:37;10.17;;;8.80;;
3311;SDS011;1668;49.648;8.570;2023-05-09T00:13:04;10.50;;;9.50;;
3311;SDS011;1668;49.648;8.570;2023-05-09T00:15:32;11.40;;;9.27;;
3311;SDS011;1668;49.648;8.570;2023-05-09T00:17:58;10.57;;;9.47;;
3311;SDS011;1668;49.648;8.570;2023-05-09T00:20:25;10.47;;;9.40;;
3311;SDS011;1668;49.648;8.570;2023-05-09T00:22:53;11.23;;;9.30;;
3311;SDS011;1668;49.648;8.570;2023-05-09T00:25:20;12.10;;;9.43;;
3311;SDS011;1668;49.648;8.570;2023-05-09T00:27:47;12.17;;;10.60;;
3311;SDS011;1668;49.648;8.570;2023-05-09T00:30:14;10.83;;;9.30;;
3311;SDS011;1668;49.648;8.570;2023-05-09T00:32:41;11.00;;;8.87;;
3311;SDS011;1668;49.648;8.570;2023-05-09T00:35:09;10.90;;;9.67;;
3311;SDS011;1668;49.648;8.570;2023-05-09T00:37:35;13.77;;;9.70;;
3311;SDS011;1668;49.648;8.570;2023-05-09T00:40:05;10.67;;;9.57;;
3311;SDS011;1668;49.648;8.570;2023-05-09T00:42:33;13.23;;;10.00;;
3311;SDS011;1668;49.648;8.570;2023-05-09T00:45:00;11.07;;;9.70;;
3311;SDS011;1668;49.648;8.570;2023-05-09T00:47:28;15.23;;;9.63;;
3311;SDS011;1668;49.648;8.570;2023-05-09T00:49:55;10.60;;;9.50;;
3311;SDS011;1668;49.648;8.570;2023-05-09T00:52:23;10.87;;;9.43;;
3311;SDS011;1668;49.648;8.570;2023-05-09T00:54:50;12.90;;;9.90;;
3311;SDS011;1668;49.648;8.570;2023-05-09T00:57:19;13.30;;;10.73;;
3311;SDS011;1668;49.648;8.570;2023-05-09T00:59:46;12.20;;;10.97;;
3311;SDS011;1668;49.648;8.570;2023-05-09T01:02:14;14.23;;;11.20;;
3311;SDS011;1668;49.648;8.570;2023-05-09T01:04:43;11.40;;;10.20;;
3311;SDS011;1668;49.648;8.570;2023-05-09T01:07:12;10.53;;;9.43;;
3311;SDS011;1668;49.648;8.570;2023-05-09T01:09:49;14.70;;;10.47;;
3311;SDS011;1668;49.648;8.570;2023-05-09T01:12:25;12.37;;;11.07;;
3311;SDS011;1668;49.648;8.570;2023-05-09T01:15:01;12.50;;;10.70;;
3311;SDS011;1668;49.648;8.570;2023-05-09T01:17:35;11.90;;;10.60;;
3311;SDS011;1668;49.648;8.570;2023-05-09T01:20:11;11.20;;;10.00;;
3311;SDS011;1668;49.648;8.570;2023-05-09T01:22:44;11.10;;;9.87;;
3311;SDS011;1668;49.648;8.570;2023-05-09T01:25:32;12.43;;;10.53;;
3311;SDS011;1668;49.648;8.570;2023-05-09T01:28:14;11.20;;;10.10;;
3311;SDS011;1668;49.648;8.570;2023-05-09T01:30:52;12.47;;;11.17;;
3311;SDS011;1668;49.648;8.570;2023-05-09T01:33:21;11.70;;;10.50;;
3311;SDS011;1668;49.648;8.570;2023-05-09T01:35:52;17.93;;;11.33;;
3311;SDS011;1668;49.648;8.570;2023-05-09T01:38:25;14.23;;;11.47;;
3311;SDS011;1668;49.648;8.570;2023-05-09T01:40:55;12.40;;;10.80;;
3311;SDS011;1668;49.648;8.570;2023-05-09T01:43:24;13.50;;;11.80;;
3311;SDS011;1668;49.648;8.570;2023-05-09T01:45:56;17.27;;;10.90;;
3311;SDS011;1668;49.648;8.570;2023-05-09T01:48:24;11.70;;;10.50;;
3311;SDS011;1668;49.648;8.570;2023-05-09T01:50:54;11.97;;;9.63;;
3311;SDS011;1668;49.648;8.570;2023-05-09T01:53:22;11.87;;;10.27;;
3311;SDS011;1668;49.648;8.570;2023-05-09T01:55:50;16.70;;;11.30;;
3311;SDS011;1668;49.648;8.570;2023-05-09T01:58:19;11.23;;;10.03;;
3311;SDS011;1668;49.648;8.570;2023-05-09T02:00:48;13.27;;;11.47;;
3311;SDS011;1668;49.648;8.570;2023-05-09T02:03:17;12.70;;;11.07;;
3311;SDS011;1668;49.648;8.570;2023-05-09T02:05:46;11.77;;;10.63;;
3311;SDS011;1668;49.648;8.570;2023-05-09T02:08:13;12.30;;;10.30;;
3311;SDS011;1668;49.648;8.570;2023-05-09T02:10:41;12.00;;;10.80;;
3311;SDS011;1668;49.648;8.570;2023-05-09T02:13:09;12.13;;;10.80;;
3311;SDS011;1668;49.648;8.570;2023-05-09T02:15:36;16.80;;;11.50;;
3311;SDS011;1668;49.648;8.570;2023-05-09T02:18:04;14.77;;;10.93;;
3311;SDS011;1668;49.648;8.570;2023-05-09T02:20:32;12.10;;;10.90;;
3311;SDS011;1668;49.648;8.570;2023-05-09T02:23:00;19.57;;;11.00;;
3311;SDS011;1668;49.648;8.570;2023-05-09T02:25:27;12.27;;;11.00;;
3311;SDS011;1668;49.648;8.570;2023-05-09T02:27:54;13.27;;;10.83;;
3311;SDS011;1668;49.648;8.570;2023-05-09T02:30:24;13.93;;;10.93;;
3311;SDS011;1668;49.648;8.570;2023-05-09T02:32:52;14.90;;;10.90;;
3311;SDS011;1668;49.648;8.570;2023-05-09T02:35:22;12.87;;;11.30;;
3311;SDS011;1668;49.648;8.570;2023-05-09T02:37:52;14.13;;;10.90;;
3311;SDS011;1668;49.648;8.570;2023-05-09T02:40:22;11.27;;;10.07;;
3311;SDS011;1668;49.648;8.570;2023-05-09T02:42:51;15.50;;;12.27;;
3311;SDS011;1668;49.648;8.570;2023-05-09T02:45:18;12.50;;;11.20;;
3311;SDS011;1668;49.648;8.570;2023-05-09T02:47:44;13.77;;;11.27;;
3311;SDS011;1668;49.648;8.570;2023-05-09T02:50:12;12.60;;;11.30;;
3311;SDS011;1668;49.648;8.570;2023-05-09T02:52:38;20.97;;;11.50;;
3311;SDS011;1668;49.648;8.570;2023-05-09T02:55:08;12.67;;;11.37;;
3311;SDS011;1668;49.648;8.570;2023-05-09T02:57:35;15.07;;;12.80;;
3311;SDS011;1668;49.648;8.570;2023-05-09T03:00:02;13.10;;;11.20;;
3311;SDS011;1668;49.648;8.570;2023-05-09T03:02:32;13.40;;;12.00;;
3311;SDS011;1668;49.648;8.570;2023-05-09T03:04:59;16.13;;;12.80;;
3311;SDS011;1668;49.648;8.570;2023-05-09T03:07:27;12.93;;;11.60;;
3311;SDS011;1668;49.648;8.570;2023-05-09T03:09:54;17.93;;;12.10;;
3311;SDS011;1668;49.648;8.570;2023-05-09T03:12:22;17.33;;;13.10;;
3311;SDS011;1668;49.648;8.570;2023-05-09T03:14:49;13.80;;;12.30;;
3311;SDS011;1668;49.648;8.570;2023-05-09T03:17:16;12.27;;;10.97;;
3311;SDS011;1668;49.648;8.570;2023-05-09T03:19:45;13.90;;;11.80;;
3311;SDS011;1668;49.648;8.570;2023-05-09T03:22:13;15.63;;;12.00;;
3311;SDS011;1668;49.648;8.570;2023-05-09T03:24:39;13.23;;;11.63;;
3311;SDS011;1668;49.648;8.570;2023-05-09T03:27:06;13.80;;;11.50;;
3311;SDS011;1668;49.648;8.570;2023-05-09T03:29:34;12.53;;;11.23;;
3311;SDS011;1668;49.648;8.570;2023-05-09T03:32:01;17.07;;;11.63;;
3311;SDS011;1668;49.648;8.570;2023-05-09T03:34:29;13.33;;;11.50;;
3311;SDS011;1668;49.648;8.570;2023-05-09T03:36:55;14.40;;;11.93;;
3311;SDS011;1668;49.648;8.570;2023-05-09T03:39:22;15.87;;;11.90;;
3311;SDS011;1668;49.648;8.570;2023-05-09T03:41:49;15.10;;;11.27;;
3311;SDS011;1668;49.648;8.570;2023-05-09T03:44:16;14.93;;;11.97;;
3311;SDS011;1668;49.648;8.570;2023-05-09T03:46:44;12.87;;;11.13;;
3311;SDS011;1668;49.648;8.570;2023-05-09T03:49:11;15.30;;;11.90;;
3311;SDS011;1668;49.648;8.570;2023-05-09T03:51:38;18.00;;;12.20;;
3311;SDS011;1668;49.648;8.570;2023-05-09T03:54:05;12.50;;;10.77;;
3311;SDS011;1668;49.648;8.570;2023-05-09T03:56:32;17.23;;;12.17;;
3311;SDS011;1668;49.648;8.570;2023-05-09T03:58:58;12.27;;;10.90;;
3311;SDS011;1668;49.648;8.570;2023-05-09T04:01:25;12.13;;;10.93;;
3311;SDS011;1668;49.648;8.570;2023-05-09T04:03:54;13.00;;;10.90;;
3311;SDS011;1668;49.648;8.570;2023-05-09T04:06:21;13.27;;;10.70;;
3311;SDS011;1668;49.648;8.570;2023-05-09T04:08:48;12.97;;;11.67;;
3311;SDS011;1668;49.648;8.570;2023-05-09T04:11:15;15.63;;;12.30;;
3311;SDS011;1668;49.648;8.570;2023-05-09T04:13:42;13.20;;;11.80;;
3311;SDS011;1668;49.648;8.570;2023-05-09T04:16:09;14.50;;;13.00;;
3311;SDS011;1668;49.648;8.570;2023-05-09T04:18:35;15.80;;;12.90;;
3311;SDS011;1668;49.648;8.570;2023-05-09T04:21:05;15.50;;;13.10;;
3311;SDS011;1668;49.648;8.570;2023-05-09T04:23:32;15.70;;;13.90;;
3311;SDS011;1668;49.648;8.570;2023-05-09T04:25:59;15.23;;;13.60;;
3311;SDS011;1668;49.648;8.570;2023-05-09T04:28:26;16.33;;;13.90;;
3311;SDS011;1668;49.648;8.570;2023-05-09T04:30:52;15.70;;;13.50;;
3311;SDS011;1668;49.648;8.570;2023-05-09T04:33:20;17.00;;;13.90;;
3311;SDS011;1668;49.648;8.570;2023-05-09T04:35:48;14.70;;;13.17;;
3311;SDS011;1668;49.648;8.570;2023-05-09T04:38:16;15.27;;;13.67;;
3311;SDS011;1668;49.648;8.570;2023-05-09T04:40:43;19.73;;;14.70;;
3311;SDS011;1668;49.648;8.570;2023-05-09T04:43:11;16.70;;;14.60;;
3311;SDS011;1668;49.648;8.570;2023-05-09T04:45:38;15.90;;;13.90;;
3311;SDS011;1668;49.648;8.570;2023-05-09T04:48:05;17.00;;;14.40;;
3311;SDS011;1668;49.648;8.570;2023-05-09T04:50:31;18.23;;;14.70;;
3311;SDS011;1668;49.648;8.570;2023-05-09T04:52:58;17.57;;;15.50;;
3311;SDS011;1668;49.648;8.570;2023-05-09T04:55:26;17.20;;;14.60;;
3311;SDS011;1668;49.648;8.570;2023-05-09T04:57:53;17.70;;;15.00;;
3311;SDS011;1668;49.648;8.570;2023-05-09T05:00:20;19.10;;;15.03;;
3311;SDS011;1668;49.648;8.570;2023-05-09T05:02:47;18.23;;;16.23;;
3311;SDS011;1668;49.648;8.570;2023-05-09T05:05:14;20.00;;;16.37;;
3311;SDS011;1668;49.648;8.570;2023-05-09T05:07:41;21.00;;;16.40;;
3311;SDS011;1668;49.648;8.570;2023-05-09T05:10:08;17.53;;;15.57;;
3311;SDS011;1668;49.648;8.570;2023-05-09T05:12:37;18.90;;;16.30;;
3311;SDS011;1668;49.648;8.570;2023-05-09T05:15:04;20.27;;;15.60;;
3311;SDS011;1668;49.648;8.570;2023-05-09T05:17:32;19.77;;;16.53;;
3311;SDS011;1668;49.648;8.570;2023-05-09T05:19:58;20.67;;;16.53;;
3311;SDS011;1668;49.648;8.570;2023-05-09T05:22:25;19.80;;;16.13;;
3311;SDS011;1668;49.648;8.570;2023-05-09T05:24:52;20.00;;;15.67;;
3311;SDS011;1668;49.648;8.570;2023-05-09T05:27:19;19.00;;;16.00;;
3311;SDS011;1668;49.648;8.570;2023-05-09T05:29:47;19.17;;;15.30;;
3311;SDS011;1668;49.648;8.570;2023-05-09T05:32:14;18.17;;;15.37;;
3311;SDS011;1668;49.648;8.570;2023-05-09T05:34:41;25.70;;;16.33;;
3311;SDS011;1668;49.648;8.570;2023-05-09T05:37:08;20.37;;;16.47;;
3311;SDS011;1668;49.648;8.570;2023-05-09T05:39:35;20.90;;;15.20;;
3311;SDS011;1668;49.648;8.570;2023-05-09T05:42:02;22.97;;;15.97;;
3311;SDS011;1668;49.648;8.570;2023-05-09T05:44:29;17.73;;;15.43;;
3311;SDS011;1668;49.648;8.570;2023-05-09T05:46:57;21.40;;;15.17;;
3311;SDS011;1668;49.648;8.570;2023-05-09T05:49:24;17.10;;;15.30;;
3311;SDS011;1668;49.648;8.570;2023-05-09T05:51:50;17.80;;;15.87;;
3311;SDS011;1668;49.648;8.570;2023-05-09T05:54:17;20.83;;;17.77;;
3311;SDS011;1668;49.648;8.570;2023-05-09T05:56:44;19.10;;;16.13;;
3311;SDS011;1668;49.648;8.570;2023-05-09T05:59:11;20.53;;;17.60;;
3311;SDS011;1668;49.648;8.570;2023-05-09T06:01:38;17.40;;;15.50;;
3311;SDS011;1668;49.648;8.570;2023-05-09T06:04:06;18.90;;;15.80;;
3311;SDS011;1668;49.648;8.570;2023-05-09T06:06:33;20.97;;;17.03;;
3311;SDS011;1668;49.648;8.570;2023-05-09T06:09:00;18.70;;;16.47;;
3311;SDS011;1668;49.648;8.570;2023-05-09T06:11:27;19.50;;;16.40;;
3311;SDS011;1668;49.648;8.570;2023-05-09T06:13:54;22.23;;;16.10;;
3311;SDS011;1668;49.648;8.570;2023-05-09T06:16:20;18.60;;;16.60;;
3311;SDS011;1668;49.648;8.570;2023-05-09T06:18:47;18.37;;;16.37;;
3311;SDS011;1668;49.648;8.570;2023-05-09T06:21:16;20.33;;;17.03;;
3311;SDS011;1668;49.648;8.570;2023-05-09T06:23:43;20.33;;;17.40;;
3311;SDS011;1668;49.648;8.570;2023-05-09T06:26:10;21.03;;;16.30;;
3311;SDS011;1668;49.648;8.570;2023-05-09T06:28:38;18.50;;;16.50;;
3311;SDS011;1668;49.648;8.570;2023-05-09T06:31:05;18.83;;;16.13;;
3311;SDS011;1668;49.648;8.570;2023-05-09T06:33:32;20.83;;;17.43;;
3311;SDS011;1668;49.648;8.570;2023-05-09T06:35:59;21.37;;;15.10;;
3311;SDS011;1668;49.648;8.570;2023-05-09T06:38:27;25.83;;;16.43;;
3311;SDS011;1668;49.648;8.570;2023-05-09T06:40:54;20.60;;;17.97;;
3311;SDS011;1668;49.648;8.570;2023-05-09T06:43:21;27.73;;;17.30;;
3311;SDS011;1668;49.648;8.570;2023-05-09T06:45:48;20.07;;;16.20;;
3311;SDS011;1668;49.648;8.570;2023-05-09T06:48:14;23.73;;;17.77;;
3311;SDS011;1668;49.648;8.570;2023-05-09T06:50:41;19.33;;;17.00;;
3311;SDS011;1668;49.648;8.570;2023-05-09T06:53:08;19.30;;;17.10;;
3311;SDS011;1668;49.648;8.570;2023-05-09T06:55:36;22.00;;;17.50;;
3311;SDS011;1668;49.648;8.570;2023-05-09T06:58:03;24.07;;;17.60;;
3311;SDS011;1668;49.648;8.570;2023-05-09T07:00:30;20.50;;;15.93;;
3311;SDS011;1668;49.648;8.570;2023-05-09T07:02:57;19.80;;;17.47;;
3311;SDS011;1668;49.648;8.570;2023-05-09T07:05:24;21.10;;;16.57;;
3311;SDS011;1668;49.648;8.570;2023-05-09T07:07:50;28.20;;;18.63;;
3311;SDS011;1668;49.648;8.570;2023-05-09T07:10:19;23.07;;;18.50;;
3311;SDS011;1668;49.648;8.570;2023-05-09T07:12:48;21.27;;;17.77;;
3311;SDS011;1668;49.648;8.570;2023-05-09T07:15:15;24.00;;;17.30;;
3311;SDS011;1668;49.648;8.570;2023-05-09T07:17:42;22.20;;;18.23;;
3311;SDS011;1668;49.648;8.570;2023-05-09T07:20:09;23.27;;;18.27;;
3311;SDS011;1668;49.648;8.570;2023-05-09T07:22:36;27.47;;;19.57;;
3311;SDS011;1668;49.648;8.570;2023-05-09T07:25:03;27.60;;;19.73;;
3311;SDS011;1668;49.648;8.570;2023-05-09T07:27:32;24.67;;;19.50;;
3311;SDS011;1668;49.648;8.570;2023-05-09T07:30:00;25.13;;;18.37;;
3311;SDS011;1668;49.648;8.570;2023-05-09T07:32:27;25.60;;;18.33;;
3311;SDS011;1668;49.648;8.570;2023-05-09T07:34:54;27.40;;;18.73;;
3311;SDS011;1668;49.648;8.570;2023-05-09T07:37:20;31.73;;;21.60;;
3311;SDS011;1668;49.648;8.570;2023-05-09T07:39:47;36.40;;;23.70;;
3311;SDS011;1668;49.648;8.570;2023-05-09T07:42:15;32.80;;;23.60;;
3311;SDS011;1668;49.648;8.570;2023-05-09T07:44:42;34.07;;;23.43;;
3311;SDS011;1668;49.648;8.570;2023-05-09T07:47:10;32.37;;;22.93;;
3311;SDS011;1668;49.648;8.570;2023-05-09T07:49:37;32.23;;;22.10;;
3311;SDS011;1668;49.648;8.570;2023-05-09T07:52:04;36.60;;;25.30;;
3311;SDS011;1668;49.648;8.570;2023-05-09T07:54:31;31.80;;;22.60;;
3311;SDS011;1668;49.648;8.570;2023-05-09T07:56:58;32.13;;;22.90;;
3311;SDS011;1668;49.648;8.570;2023-05-09T07:59:25;33.93;;;24.30;;
3311;SDS011;1668;49.648;8.570;2023-05-09T08:01:52;31.27;;;23.47;;
3311;SDS011;1668;49.648;8.570;2023-05-09T08:04:20;32.30;;;22.77;;
3311;SDS011;1668;49.648;8.570;2023-05-09T08:06:47;34.00;;;24.43;;
3311;SDS011;1668;49.648;8.570;2023-05-09T08:09:14;34.47;;;24.90;;
3311;SDS011;1668;49.648;8.570;2023-05-09T08:11:41;38.87;;;24.90;;
3311;SDS011;1668;49.648;8.570;2023-05-09T08:14:08;36.73;;;24.27;;
3311;SDS011;1668;49.648;8.570;2023-05-09T08:16:35;34.47;;;22.93;;
3311;SDS011;1668;49.648;8.570;2023-05-09T08:19:01;37.13;;;24.30;;
3311;SDS011;1668;49.648;8.570;2023-05-09T08:21:30;29.67;;;21.50;;
3311;SDS011;1668;49.648;8.570;2023-05-09T08:23:57;32.93;;;23.87;;
3311;SDS011;1668;49.648;8.570;2023-05-09T08:26:25;34.37;;;24.63;;
3311;SDS011;1668;49.648;8.570;2023-05-09T08:28:52;30.37;;;21.93;;
3311;SDS011;1668;49.648;8.570;2023-05-09T08:31:19;29.70;;;22.80;;
3311;SDS011;1668;49.648;8.570;2023-05-09T08:33:46;29.30;;;22.10;;
3311;SDS011;1668;49.648;8.570;2023-05-09T08:36:13;27.43;;;20.10;;
3311;SDS011;1668;49.648;8.570;2023-05-09T08:38:41;28.47;;;21.23;;
3311;SDS011;1668;49.648;8.570;2023-05-09T08:41:08;28.47;;;18.97;;
3311;SDS011;1668;49.648;8.570;2023-05-09T08:43:35;26.83;;;19.60;;
3311;SDS011;1668;49.648;8.570;2023-05-09T08:46:05;28.80;;;20.57;;
3311;SDS011;1668;49.648;8.570;2023-05-09T08:48:33;25.87;;;20.30;;
3311;SDS011;1668;49.648;8.570;2023-05-09T08:51:02;34.13;;;24.00;;
3311;SDS011;1668;49.648;8.570;2023-05-09T08:53:29;33.00;;;22.57;;
3311;SDS011;1668;49.648;8.570;2023-05-09T08:55:58;30.77;;;23.37;;
3311;SDS011;1668;49.648;8.570;2023-05-09T08:58:26;28.47;;;21.10;;
3311;SDS011;1668;49.648;8.570;2023-05-09T09:00:54;35.03;;;24.70;;
3311;SDS011;1668;49.648;8.570;2023-05-09T09:03:22;30.40;;;22.83;;
3311;SDS011;1668;49.648;8.570;2023-05-09T09:05:49;29.97;;;22.23;;
3311;SDS011;1668;49.648;8.570;2023-05-09T09:08:18;29.13;;;22.67;;
3311;SDS011;1668;49.648;8.570;2023-05-09T09:10:47;33.33;;;24.37;;
3311;SDS011;1668;49.648;8.570;2023-05-09T09:13:15;32.43;;;23.90;;
3311;SDS011;1668;49.648;8.570;2023-05-09T09:15:43;32.00;;;23.13;;
3311;SDS011;1668;49.648;8.570;2023-05-09T09:18:13;34.27;;;24.40;;
3311;SDS011;1668;49.648;8.570;2023-05-09T09:20:44;33.30;;;24.30;;
3311;SDS011;1668;49.648;8.570;2023-05-09T09:23:14;31.57;;;24.63;;
3311;SDS011;1668;49.648;8.570;2023-05-09T09:25:45;33.20;;;24.00;;
3311;SDS011;1668;49.648;8.570;2023-05-09T09:28:12;29.00;;;22.13;;
3311;SDS011;1668;49.648;8.570;2023-05-09T09:30:43;28.23;;;21.30;;
3311;SDS011;1668;49.648;8.570;2023-05-09T09:33:17;30.57;;;23.10;;
3311;SDS011;1668;49.648;8.570;2023-05-09T09:35:46;29.63;;;23.33;;
3311;SDS011;1668;49.648;8.570;2023-05-09T09:38:14;28.40;;;22.80;;
3311;SDS011;1668;49.648;8.570;2023-05-09T09:40:47;27.83;;;22.43;;
3311;SDS011;1668;49.648;8.570;2023-05-09T09:43:14;31.27;;;23.83;;
3311;SDS011;1668;49.648;8.570;2023-05-09T09:45:41;30.43;;;23.83;;
3311;SDS011;1668;49.648;8.570;2023-05-09T09:48:13;28.53;;;22.57;;
3311;SDS011;1668;49.648;8.570;2023-05-09T09:50:40;28.10;;;21.30;;
3311;SDS011;1668;49.648;8.570;2023-05-09T09:53:07;27.57;;;21.47;;
3311;SDS011;1668;49.648;8.570;2023-05-09T09:55:34;27.20;;;21.40;;
3311;SDS011;1668;49.648;8.570;2023-05-09T09:58:01;30.17;;;22.80;;
3311;SDS011;1668;49.648;8.570;2023-05-09T10:00:28;27.37;;;21.83;;
3311;SDS011;1668;49.648;8.570;2023-05-09T10:02:58;27.80;;;21.67;;
3311;SDS011;1668;49.648;8.570;2023-05-09T10:05:25;24.93;;;20.77;;
3311;SDS011;1668;49.648;8.570;2023-05-09T10:07:53;27.73;;;21.63;;
3311;SDS011;1668;49.648;8.570;2023-05-09T10:10:24;28.60;;;21.90;;
3311;SDS011;1668;49.648;8.570;2023-05-09T10:12:53;30.23;;;23.30;;
3311;SDS011;1668;49.648;8.570;2023-05-09T10:15:22;30.63;;;23.17;;
3311;SDS011;1668;49.648;8.570;2023-05-09T10:17:50;28.83;;;22.30;;
3311;SDS011;1668;49.648;8.570;2023-05-09T10:20:21;26.87;;;20.83;;
3311;SDS011;1668;49.648;8.570;2023-05-09T10:22:49;28.57;;;21.33;;
3311;SDS011;1668;49.648;8.570;2023-05-09T10:25:19;26.80;;;22.00;;
3311;SDS011;1668;49.648;8.570;2023-05-09T10:27:47;24.20;;;19.40;;
3311;SDS011;1668;49.648;8.570;2023-05-09T10:30:16;23.80;;;19.07;;
3311;SDS011;1668;49.648;8.570;2023-05-09T10:32:46;26.27;;;19.70;;
3311;SDS011;1668;49.648;8.570;2023-05-09T10:35:17;24.43;;;20.67;;
3311;SDS011;1668;49.648;8.570;2023-05-09T10:37:47;23.53;;;20.30;;
3311;SDS011;1668;49.648;8.570;2023-05-09T10:40:14;28.33;;;20.07;;
3311;SDS011;1668;49.648;8.570;2023-05-09T10:42:41;24.37;;;19.40;;
3311;SDS011;1668;49.648;8.570;2023-05-09T10:45:09;22.60;;;18.03;;
3311;SDS011;1668;49.648;8.570;2023-05-09T10:47:36;24.37;;;19.73;;
3311;SDS011;1668;49.648;8.570;2023-05-09T10:50:04;19.53;;;17.17;;
3311;SDS011;1668;49.648;8.570;2023-05-09T10:52:33;21.40;;;17.73;;
3311;SDS011;1668;49.648;8.570;2023-05-09T10:55:02;23.80;;;18.37;;
3311;SDS011;1668;49.648;8.570;2023-05-09T10:57:30;22.50;;;18.90;;
3311;SDS011;1668;49.648;8.570;2023-05-09T10:59:57;21.80;;;18.73;;
3311;SDS011;1668;49.648;8.570;2023-05-09T11:02:25;25.93;;;19.90;;
3311;SDS011;1668;49.648;8.570;2023-05-09T11:05:13;21.90;;;18.63;;
3311;SDS011;1668;49.648;8.570;2023-05-09T11:07:41;22.23;;;17.03;;
3311;SDS011;1668;49.648;8.570;2023-05-09T11:10:13;18.60;;;15.83;;
3311;SDS011;1668;49.648;8.570;2023-05-09T11:12:51;18.67;;;16.13;;
3311;SDS011;1668;49.648;8.570;2023-05-09T11:15:20;19.00;;;15.40;;
3311;SDS011;1668;49.648;8.570;2023-05-09T11:17:49;19.70;;;16.50;;
3311;SDS011;1668;49.648;8.570;2023-05-09T11:20:29;20.10;;;17.20;;
3311;SDS011;1668;49.648;8.570;2023-05-09T11:22:59;21.23;;;17.47;;
3311;SDS011;1668;49.648;8.570;2023-05-09T11:25:30;18.70;;;16.70;;
3311;SDS011;1668;49.648;8.570;2023-05-09T11:27:57;19.10;;;15.63;;
3311;SDS011;1668;49.648;8.570;2023-05-09T11:30:34;18.60;;;16.60;;
3311;SDS011;1668;49.648;8.570;2023-05-09T11:33:03;18.23;;;15.23;;
3311;SDS011;1668;49.648;8.570;2023-05-09T11:35:30;20.07;;;15.73;;
3311;SDS011;1668;49.648;8.570;2023-05-09T11:37:59;18.87;;;14.27;;
3311;SDS011;1668;49.648;8.570;2023-05-09T11:40:28;18.70;;;15.67;;
3311;SDS011;1668;49.648;8.570;2023-05-09T11:42:57;16.37;;;14.10;;
3311;SDS011;1668;49.648;8.570;2023-05-09T11:45:26;17.73;;;15.57;;
3311;SDS011;1668;49.648;8.570;2023-05-09T11:47:54;21.63;;;14.60;;
3311;SDS011;1668;49.648;8.570;2023-05-09T11:50:22;18.27;;;13.77;;
3311;SDS011;1668;49.648;8.570;2023-05-09T11:52:49;16.83;;;14.60;;
3311;SDS011;1668;49.648;8.570;2023-05-09T11:55:16;15.40;;;13.47;;
3311;SDS011;1668;49.648;8.570;2023-05-09T11:57:48;19.50;;;13.00;;
3311;SDS011;1668;49.648;8.570;2023-05-09T12:00:16;14.33;;;12.83;;
3311;SDS011;1668;49.648;8.570;2023-05-09T12:02:44;14.60;;;12.43;;
3311;SDS011;1668;49.648;8.570;2023-05-09T12:07:47;13.03;;;11.70;;
3311;SDS011;1668;49.648;8.570;2023-05-09T12:10:15;12.60;;;11.30;;
3311;SDS011;1668;49.648;8.570;2023-05-09T12:12:46;12.17;;;10.33;;
3311;SDS011;1668;49.648;8.570;2023-05-09T12:15:15;16.43;;;9.93;;
3311;SDS011;1668;49.648;8.570;2023-05-09T12:17:43;15.03;;;11.03;;
3311;SDS011;1668;49.648;8.570;2023-05-09T12:20:10;11.20;;;9.50;;
3311;SDS011;1668;49.648;8.570;2023-05-09T12:22:40;9.83;;;8.83;;
3311;SDS011;1668;49.648;8.570;2023-05-09T12:25:08;14.23;;;8.40;;
3311;SDS011;1668;49.648;8.570;2023-05-09T12:27:37;12.10;;;8.20;;
3311;SDS011;1668;49.648;8.570;2023-05-09T12:30:07;8.60;;;7.70;;
3311;SDS011;1668;49.648;8.570;2023-05-09T12:32:36;11.30;;;6.80;;
3311;SDS011;1668;49.648;8.570;2023-05-09T12:35:04;6.90;;;6.20;;
3311;SDS011;1668;49.648;8.570;2023-05-09T12:37:32;6.47;;;5.87;;
3311;SDS011;1668;49.648;8.570;2023-05-09T12:39:59;6.47;;;5.70;;
3311;SDS011;1668;49.648;8.570;2023-05-09T12:42:28;6.37;;;5.60;;
3311;SDS011;1668;49.648;8.570;2023-05-09T12:44:55;6.17;;;5.17;;
3311;SDS011;1668;49.648;8.570;2023-05-09T12:47:25;6.63;;;6.03;;
3311;SDS011;1668;49.648;8.570;2023-05-09T12:49:55;7.10;;;5.80;;
3311;SDS011;1668;49.648;8.570;2023-05-09T12:52:22;8.90;;;6.10;;
3311;SDS011;1668;49.648;8.570;2023-05-09T12:54:50;6.03;;;5.40;;
3311;SDS011;1668;49.648;8.570;2023-05-09T12:57:21;6.60;;;5.93;;
3311;SDS011;1668;49.648;8.570;2023-05-09T12:59:48;6.87;;;6.23;;
3311;SDS011;1668;49.648;8.570;2023-05-09T13:02:15;7.80;;;5.90;;
3311;SDS011;1668;49.648;8.570;2023-05-09T13:04:44;6.43;;;5.70;;
3311;SDS011;1668;49.648;8.570;2023-05-09T13:07:11;8.67;;;5.07;;
3311;SDS011;1668;49.648;8.570;2023-05-09T13:09:53;5.07;;;4.57;;
3311;SDS011;1668;49.648;8.570;2023-05-09T13:12:21;5.90;;;5.40;;
3311;SDS011;1668;49.648;8.570;2023-05-09T13:14:49;5.87;;;5.33;;
3311;SDS011;1668;49.648;8.570;2023-05-09T13:17:15;6.33;;;5.33;;
3311;SDS011;1668;49.648;8.570;2023-05-09T13:19:42;6.80;;;4.90;;
3311;SDS011;1668;49.648;8.570;2023-05-09T13:22:11;5.90;;;4.83;;
3311;SDS011;1668;49.648;8.570;2023-05-09T13:24:41;5.00;;;4.20;;
3311;SDS011;1668;49.648;8.570;2023-05-09T13:27:08;6.87;;;4.90;;
3311;SDS011;1668;49.648;8.570;2023-05-09T13:29:35;5.33;;;4.70;;
3311;SDS011;1668;49.648;8.570;2023-05-09T13:32:02;5.20;;;4.70;;
3311;SDS011;1668;49.648;8.570;2023-05-09T13:34:29;8.10;;;5.40;;
3311;SDS011;1668;49.648;8.570;2023-05-09T13:36:57;5.80;;;5.10;;
3311;SDS011;1668;49.648;8.570;2023-05-09T13:39:24;6.60;;;5.80;;
3311;SDS011;1668;49.648;8.570;2023-05-09T13:41:50;6.40;;;4.90;;
3311;SDS011;1668;49.648;8.570;2023-05-09T13:44:17;6.27;;;5.47;;
3311;SDS011;1668;49.648;8.570;2023-05-09T13:46:44;5.50;;;4.70;;
3311;SDS011;1668;49.648;8.570;2023-05-09T13:49:11;5.33;;;4.83;;
3311;SDS011;1668;49.648;8.570;2023-05-09T13:51:37;6.03;;;4.80;;
3311;SDS011;1668;49.648;8.570;2023-05-09T13:54:06;8.53;;;5.40;;
3311;SDS011;1668;49.648;8.570;2023-05-09T13:56:36;8.37;;;5.40;;
3311;SDS011;1668;49.648;8.570;2023-05-09T13:59:04;8.67;;;6.20;;
3311;SDS011;1668;49.648;8.570;2023-05-09T14:01:31;5.90;;;5.30;;
3311;SDS011;1668;49.648;8.570;2023-05-09T14:03:58;5.20;;;4.70;;
3311;SDS011;1668;49.648;8.570;2023-05-09T14:06:24;5.57;;;5.00;;
3311;SDS011;1668;49.648;8.570;2023-05-09T14:08:51;5.57;;;4.83;;
3311;SDS011;1668;49.648;8.570;2023-05-09T14:11:19;7.97;;;5.80;;
3311;SDS011;1668;49.648;8.570;2023-05-09T14:13:46;10.50;;;5.77;;
3311;SDS011;1668;49.648;8.570;2023-05-09T14:16:13;9.10;;;5.73;;
3311;SDS011;1668;49.648;8.570;2023-05-09T14:18:40;5.83;;;5.10;;
3311;SDS011;1668;49.648;8.570;2023-05-09T14:21:07;5.80;;;5.13;;
3311;SDS011;1668;49.648;8.570;2023-05-09T14:23:33;7.50;;;5.63;;
3311;SDS011;1668;49.648;8.570;2023-05-09T14:26:00;5.63;;;4.97;;
3311;SDS011;1668;49.648;8.570;2023-05-09T14:28:28;7.63;;;5.40;;
3311;SDS011;1668;49.648;8.570;2023-05-09T14:30:55;7.07;;;5.37;;
3311;SDS011;1668;49.648;8.570;2023-05-09T14:33:22;6.03;;;5.43;;
3311;SDS011;1668;49.648;8.570;2023-05-09T14:35:49;6.20;;;5.60;;
3311;SDS011;1668;49.648;8.570;2023-05-09T14:38:16;6.73;;;5.57;;
3311;SDS011;1668;49.648;8.570;2023-05-09T14:40:42;6.30;;;5.10;;
3311;SDS011;1668;49.648;8.570;2023-05-09T14:43:09;5.77;;;4.70;;
3311;SDS011;1668;49.648;8.570;2023-05-09T14:45:38;6.67;;;5.37;;
3311;SDS011;1668;49.648;8.570;2023-05-09T14:48:04;6.13;;;5.20;;
3311;SDS011;1668;49.648;8.570;2023-05-09T14:50:31;7.47;;;5.80;;
3311;SDS011;1668;49.648;8.570;2023-05-09T14:53:25;7.87;;;5.80;;
3311;SDS011;1668;49.648;8.570;2023-05-09T14:58:11;7.77;;;4.93;;
3311;SDS011;1668;49.648;8.570;2023-05-09T15:18:25;6.83;;;5.17;;
3311;SDS011;1668;49.648;8.570;2023-05-09T15:20:53;5.20;;;4.17;;